AAL407 TFFF-CYUL
Flight info
| Callsign | AAL407 |
|---|---|
| Flight time | 4h 27m |
| Altitude | 40000 |
| Route | EMOLA2R EMOLA A555 DUNTA/N0496F380 UA555 ILURI L454 LEEOO DCT HANCY/M085F380 L456 MEGGG/M085F400 L456 MARIG/N0490F400 Y483 DOGRS Y487 SHIPP DCT JFK/N0490F390 DCT LLUND DCT CAM DCT JASDU DCT PBERG CARTR5 |
| Aircraft | B789/H-SDE1E2E3FGHIJ2J3J4J5M1RWXY/LB1D1 |
Departure
| Time | 2026-05-04 16:47 |
|---|---|
| Airport | Martinique Aimé Césaire International Airport (TFFF) |
Arrival
| Time | 2026-05-04 21:15 |
|---|---|
| Airport | Montreal / Pierre Elliott Trudeau International Airport (CYUL) |
| Time | Latitude | Longitude | Altitude | Speed | Heading |
|---|---|---|---|---|---|
| 2026-05-04 16:39 | 14.59448 | -61.00039 | 29 ft | 0 kts | 21° |
| 2026-05-04 16:41 | 14.59414 | -61.00053 | 29 ft | 3 kts | 21° |
| 2026-05-04 16:42 | 14.59375 | -61.00068 | 29 ft | 0 kts | 21° |
| 2026-05-04 16:43 | 14.59377 | -61.00067 | 29 ft | 1 kts | 26° |
| 2026-05-04 16:43 | 14.59382 | -61.00053 | 29 ft | 3 kts | 95° |
| 2026-05-04 16:44 | 14.59179 | -60.99881 | 29 ft | 20 kts | 77° |
| 2026-05-04 16:45 | 14.59243 | -60.99504 | 29 ft | 31 kts | 83° |
| 2026-05-04 16:46 | 14.59279 | -60.99105 | 29 ft | 7 kts | 45° |
| 2026-05-04 16:46 | 14.59304 | -60.99131 | 29 ft | 9 kts | 269° |
| 2026-05-04 16:47 | 14.59037 | -61.00681 | 44 ft | 195 kts | 262° |
| 2026-05-04 16:47 | 14.58497 | -61.03806 | 1653 ft | 229 kts | 259° |
| 2026-05-04 16:48 | 14.57664 | -61.08686 | 5013 ft | 235 kts | 261° |
| 2026-05-04 16:48 | 14.57483 | -61.10389 | 5831 ft | 247 kts | 272° |
| 2026-05-04 16:49 | 14.59470 | -61.13316 | 7178 ft | 271 kts | 329° |
| 2026-05-04 16:49 | 14.62784 | -61.15328 | 8808 ft | 283 kts | 328° |
| 2026-05-04 16:50 | 14.66144 | -61.17627 | 10391 ft | 296 kts | 325° |
| 2026-05-04 16:50 | 14.69707 | -61.20183 | 11340 ft | 328 kts | 324° |
| 2026-05-04 16:51 | 14.73604 | -61.23021 | 12074 ft | 362 kts | 324° |
| 2026-05-04 16:51 | 14.75707 | -61.24557 | 12447 ft | 376 kts | 324° |
| 2026-05-04 16:51 | 14.80063 | -61.27786 | 13538 ft | 392 kts | 322° |
| 2026-05-04 16:52 | 14.84172 | -61.31608 | 14828 ft | 402 kts | 316° |
| 2026-05-04 16:52 | 14.86186 | -61.33629 | 15484 ft | 405 kts | 315° |
| 2026-05-04 16:53 | 14.90051 | -61.37793 | 16759 ft | 412 kts | 313° |
| 2026-05-04 16:53 | 14.95932 | -61.44464 | 18510 ft | 424 kts | 312° |
| 2026-05-04 16:54 | 14.97929 | -61.46753 | 19069 ft | 428 kts | 311° |
| 2026-05-04 16:55 | 15.06015 | -61.56031 | 21242 ft | 442 kts | 311° |
| 2026-05-04 16:55 | 15.10171 | -61.60803 | 22247 ft | 450 kts | 311° |
| 2026-05-04 16:56 | 15.14393 | -61.65659 | 23241 ft | 457 kts | 311° |
| 2026-05-04 16:56 | 15.20843 | -61.73079 | 24693 ft | 466 kts | 311° |
| 2026-05-04 16:57 | 15.23003 | -61.75565 | 25157 ft | 470 kts | 311° |
| 2026-05-04 16:57 | 15.27401 | -61.80633 | 26064 ft | 476 kts | 311° |
| 2026-05-04 16:58 | 15.34106 | -61.88363 | 27401 ft | 484 kts | 311° |
| 2026-05-04 16:58 | 15.36339 | -61.90941 | 27824 ft | 487 kts | 311° |
| 2026-05-04 16:59 | 15.40910 | -61.96217 | 28651 ft | 494 kts | 311° |
| 2026-05-04 17:00 | 15.50167 | -62.06917 | 30299 ft | 505 kts | 311° |
| 2026-05-04 17:00 | 15.57268 | -62.15135 | 31487 ft | 514 kts | 311° |
| 2026-05-04 17:01 | 15.62055 | -62.20684 | 32412 ft | 516 kts | 311° |
| 2026-05-04 17:01 | 15.66838 | -62.26229 | 33458 ft | 514 kts | 311° |
| 2026-05-04 17:02 | 15.71599 | -62.31753 | 34498 ft | 512 kts | 311° |
| 2026-05-04 17:02 | 15.76302 | -62.37215 | 35521 ft | 509 kts | 311° |
| 2026-05-04 17:03 | 15.78654 | -62.39949 | 36017 ft | 507 kts | 311° |
| 2026-05-04 17:03 | 15.81007 | -62.42683 | 36495 ft | 506 kts | 311° |
| 2026-05-04 17:03 | 15.85680 | -62.48119 | 37376 ft | 502 kts | 311° |
| 2026-05-04 17:04 | 15.90322 | -62.53522 | 38165 ft | 499 kts | 311° |
| 2026-05-04 17:04 | 15.94939 | -62.58901 | 38842 ft | 497 kts | 311° |
| 2026-05-04 17:05 | 15.99537 | -62.64261 | 39034 ft | 495 kts | 311° |
| 2026-05-04 17:05 | 16.04071 | -62.69552 | 39045 ft | 492 kts | 311° |
| 2026-05-04 17:06 | 16.10917 | -62.77548 | 39058 ft | 493 kts | 311° |
| 2026-05-04 17:07 | 16.16984 | -62.84641 | 39047 ft | 492 kts | 311° |
| 2026-05-04 17:07 | 16.22306 | -62.90870 | 39060 ft | 493 kts | 311° |
| 2026-05-04 17:08 | 16.29130 | -62.98822 | 39048 ft | 492 kts | 312° |
| 2026-05-04 17:09 | 16.33768 | -63.04078 | 39060 ft | 493 kts | 312° |
| 2026-05-04 17:09 | 16.38434 | -63.09314 | 39049 ft | 492 kts | 313° |
| 2026-05-04 17:10 | 16.50074 | -63.22342 | 39051 ft | 493 kts | 313° |
| 2026-05-04 17:11 | 16.54738 | -63.27569 | 39051 ft | 492 kts | 313° |
| 2026-05-04 17:12 | 16.61735 | -63.35417 | 39053 ft | 493 kts | 313° |
| 2026-05-04 17:13 | 16.73398 | -63.48521 | 39055 ft | 493 kts | 313° |
| 2026-05-04 17:14 | 16.82692 | -63.58981 | 39060 ft | 493 kts | 313° |
| 2026-05-04 17:15 | 16.89683 | -63.66859 | 39047 ft | 492 kts | 312° |
| 2026-05-04 17:16 | 16.98995 | -63.77368 | 39052 ft | 493 kts | 312° |
| 2026-05-04 17:17 | 17.08302 | -63.87888 | 39060 ft | 493 kts | 312° |
| 2026-05-04 17:18 | 17.17580 | -63.98391 | 39056 ft | 493 kts | 312° |
| 2026-05-04 17:19 | 17.26870 | -64.08925 | 39047 ft | 493 kts | 312° |
| 2026-05-04 17:20 | 17.36152 | -64.19466 | 39050 ft | 493 kts | 312° |
| 2026-05-04 17:20 | 17.43112 | -64.27382 | 39059 ft | 493 kts | 312° |
| 2026-05-04 17:21 | 17.52393 | -64.37952 | 39050 ft | 493 kts | 312° |
| 2026-05-04 17:22 | 17.57351 | -64.42892 | 39033 ft | 492 kts | 326° |
| 2026-05-04 17:23 | 17.66707 | -64.47240 | 39063 ft | 493 kts | 340° |
| 2026-05-04 17:23 | 17.69938 | -64.48444 | 39050 ft | 492 kts | 341° |
| 2026-05-04 17:24 | 17.79646 | -64.52053 | 39059 ft | 493 kts | 341° |
| 2026-05-04 17:25 | 17.92556 | -64.56930 | 39050 ft | 493 kts | 340° |
| 2026-05-04 17:26 | 18.05417 | -64.61810 | 39048 ft | 493 kts | 340° |
| 2026-05-04 17:27 | 18.20466 | -64.67528 | 39051 ft | 493 kts | 340° |
| 2026-05-04 17:28 | 18.33365 | -64.72438 | 39060 ft | 493 kts | 340° |
| 2026-05-04 17:29 | 18.52708 | -64.79815 | 39056 ft | 493 kts | 340° |
| 2026-05-04 17:31 | 18.68829 | -64.85976 | 39058 ft | 493 kts | 340° |
| 2026-05-04 17:32 | 18.84953 | -64.92152 | 39059 ft | 493 kts | 340° |
| 2026-05-04 17:33 | 18.97803 | -64.97082 | 39057 ft | 493 kts | 340° |
| 2026-05-04 17:34 | 19.10676 | -65.02030 | 39048 ft | 493 kts | 340° |
| 2026-05-04 17:35 | 19.26800 | -65.08239 | 39047 ft | 493 kts | 340° |
| 2026-05-04 17:36 | 19.33250 | -65.10726 | 39060 ft | 493 kts | 340° |
| 2026-05-04 17:36 | 19.39697 | -65.13214 | 39051 ft | 493 kts | 340° |
| 2026-05-04 17:37 | 19.46100 | -65.15687 | 39051 ft | 493 kts | 340° |
| 2026-05-04 17:37 | 19.52547 | -65.18180 | 39060 ft | 493 kts | 340° |
| 2026-05-04 17:38 | 19.59000 | -65.20676 | 39047 ft | 493 kts | 340° |
| 2026-05-04 17:38 | 19.65436 | -65.23169 | 39057 ft | 493 kts | 340° |
| 2026-05-04 17:39 | 19.75115 | -65.26921 | 39048 ft | 493 kts | 340° |
| 2026-05-04 17:39 | 19.81521 | -65.29407 | 39054 ft | 493 kts | 340° |
| 2026-05-04 17:40 | 19.87966 | -65.31911 | 39058 ft | 493 kts | 340° |
| 2026-05-04 17:40 | 19.94417 | -65.34419 | 39047 ft | 493 kts | 340° |
| 2026-05-04 17:41 | 20.00855 | -65.36923 | 39059 ft | 493 kts | 340° |
| 2026-05-04 17:41 | 20.07307 | -65.39436 | 39052 ft | 493 kts | 340° |
| 2026-05-04 17:42 | 20.13739 | -65.41943 | 39050 ft | 493 kts | 340° |
| 2026-05-04 17:42 | 20.20156 | -65.44446 | 39060 ft | 493 kts | 340° |
| 2026-05-04 17:43 | 20.26596 | -65.46961 | 39048 ft | 493 kts | 340° |
| 2026-05-04 17:43 | 20.33043 | -65.49481 | 39056 ft | 493 kts | 340° |
| 2026-05-04 17:44 | 20.39457 | -65.51990 | 39056 ft | 493 kts | 340° |
| 2026-05-04 17:44 | 20.45898 | -65.54511 | 39047 ft | 493 kts | 340° |
| 2026-05-04 17:45 | 20.52338 | -65.57035 | 39060 ft | 493 kts | 340° |
| 2026-05-04 17:45 | 20.58779 | -65.59561 | 39051 ft | 493 kts | 340° |
| 2026-05-04 17:46 | 20.65222 | -65.62090 | 39051 ft | 493 kts | 340° |
| 2026-05-04 17:46 | 20.71627 | -65.64607 | 39060 ft | 493 kts | 340° |
| 2026-05-04 17:47 | 20.78061 | -65.67137 | 39047 ft | 493 kts | 340° |
| 2026-05-04 17:47 | 20.84519 | -65.69680 | 39057 ft | 493 kts | 340° |
| 2026-05-04 17:48 | 20.90951 | -65.72214 | 39055 ft | 493 kts | 340° |
| 2026-05-04 17:48 | 20.97357 | -65.74740 | 39047 ft | 493 kts | 340° |
| 2026-05-04 17:49 | 21.03786 | -65.77278 | 39060 ft | 493 kts | 340° |
| 2026-05-04 17:49 | 21.10235 | -65.79826 | 39050 ft | 493 kts | 340° |
| 2026-05-04 17:50 | 21.16667 | -65.82369 | 39053 ft | 493 kts | 340° |
| 2026-05-04 17:50 | 21.23065 | -65.84901 | 39059 ft | 493 kts | 340° |
| 2026-05-04 17:51 | 21.29508 | -65.87454 | 39047 ft | 493 kts | 340° |
| 2026-05-04 17:51 | 21.35935 | -65.90003 | 39058 ft | 493 kts | 340° |
| 2026-05-04 17:52 | 21.42375 | -65.92559 | 39054 ft | 493 kts | 340° |
| 2026-05-04 17:52 | 21.48813 | -65.95117 | 39048 ft | 493 kts | 340° |
| 2026-05-04 17:53 | 21.55218 | -65.97664 | 39060 ft | 493 kts | 340° |
| 2026-05-04 17:53 | 21.61657 | -66.00227 | 39049 ft | 493 kts | 340° |
| 2026-05-04 17:54 | 21.68097 | -66.02793 | 39054 ft | 493 kts | 340° |
| 2026-05-04 17:54 | 21.74493 | -66.05343 | 39059 ft | 493 kts | 340° |
| 2026-05-04 17:55 | 21.80920 | -66.07909 | 39047 ft | 493 kts | 340° |
| 2026-05-04 17:55 | 21.87357 | -66.10481 | 39058 ft | 493 kts | 340° |
| 2026-05-04 17:56 | 21.93787 | -66.13053 | 39053 ft | 493 kts | 340° |
| 2026-05-04 17:56 | 22.00214 | -66.15626 | 39049 ft | 493 kts | 340° |
| 2026-05-04 17:57 | 22.06806 | -66.17677 | 39067 ft | 493 kts | 348° |
| 2026-05-04 17:57 | 22.13500 | -66.19091 | 39049 ft | 493 kts | 350° |
| 2026-05-04 17:58 | 22.20236 | -66.20432 | 39053 ft | 493 kts | 350° |
| 2026-05-04 17:58 | 22.26990 | -66.21796 | 39059 ft | 493 kts | 349° |
| 2026-05-04 17:59 | 22.33742 | -66.23174 | 39047 ft | 493 kts | 349° |
| 2026-05-04 18:00 | 22.43822 | -66.25242 | 39060 ft | 493 kts | 349° |
| 2026-05-04 18:00 | 22.50565 | -66.26626 | 39047 ft | 493 kts | 349° |
| 2026-05-04 18:01 | 22.57314 | -66.28013 | 39056 ft | 493 kts | 349° |
| 2026-05-04 18:01 | 22.64045 | -66.29398 | 39056 ft | 493 kts | 349° |
| 2026-05-04 18:02 | 22.74126 | -66.31475 | 39054 ft | 493 kts | 349° |
| 2026-05-04 18:02 | 22.80880 | -66.32868 | 39058 ft | 493 kts | 349° |
| 2026-05-04 18:03 | 22.87624 | -66.34260 | 39047 ft | 493 kts | 349° |
| 2026-05-04 18:03 | 22.94352 | -66.35646 | 39059 ft | 493 kts | 349° |
| 2026-05-04 18:04 | 23.01061 | -66.37036 | 39052 ft | 493 kts | 349° |
| 2026-05-04 18:05 | 23.11180 | -66.39135 | 39057 ft | 493 kts | 349° |
| 2026-05-04 18:05 | 23.17917 | -66.40532 | 39054 ft | 493 kts | 349° |
| 2026-05-04 18:06 | 23.27981 | -66.42622 | 39055 ft | 493 kts | 349° |
| 2026-05-04 18:06 | 23.34737 | -66.44027 | 39057 ft | 493 kts | 349° |
| 2026-05-04 18:07 | 23.41473 | -66.45429 | 39047 ft | 493 kts | 349° |
| 2026-05-04 18:07 | 23.48227 | -66.46837 | 39060 ft | 493 kts | 349° |
| 2026-05-04 18:08 | 23.54939 | -66.48237 | 39051 ft | 493 kts | 349° |
| 2026-05-04 18:08 | 23.61672 | -66.49643 | 39051 ft | 493 kts | 349° |
| 2026-05-04 18:09 | 23.75116 | -66.52455 | 39047 ft | 493 kts | 349° |
| 2026-05-04 18:10 | 23.81859 | -66.53868 | 39056 ft | 493 kts | 349° |
| 2026-05-04 18:10 | 23.88615 | -66.55284 | 39056 ft | 493 kts | 349° |
| 2026-05-04 18:11 | 23.95360 | -66.56700 | 39047 ft | 493 kts | 349° |
| 2026-05-04 18:11 | 24.02050 | -66.58106 | 39060 ft | 493 kts | 349° |
| 2026-05-04 18:12 | 24.08787 | -66.59523 | 39051 ft | 493 kts | 349° |
| 2026-05-04 18:12 | 24.15529 | -66.60943 | 39051 ft | 493 kts | 349° |
| 2026-05-04 18:13 | 24.22276 | -66.62366 | 39060 ft | 493 kts | 349° |
| 2026-05-04 18:14 | 24.32380 | -66.64499 | 39049 ft | 493 kts | 349° |
| 2026-05-04 18:14 | 24.37990 | -66.65684 | 39060 ft | 493 kts | 349° |
| 2026-05-04 18:15 | 24.51462 | -66.68537 | 39052 ft | 493 kts | 349° |
| 2026-05-04 18:16 | 24.58166 | -66.69958 | 39060 ft | 493 kts | 349° |
| 2026-05-04 18:16 | 24.64915 | -66.71391 | 39047 ft | 493 kts | 349° |
| 2026-05-04 18:17 | 24.75020 | -66.73539 | 39060 ft | 493 kts | 349° |
| 2026-05-04 18:18 | 24.85125 | -66.75690 | 39048 ft | 493 kts | 349° |
| 2026-05-04 18:18 | 24.91828 | -66.77120 | 39060 ft | 493 kts | 349° |
| 2026-05-04 18:19 | 25.01939 | -66.79278 | 39047 ft | 493 kts | 349° |
| 2026-05-04 18:19 | 25.08683 | -66.80720 | 39059 ft | 493 kts | 349° |
| 2026-05-04 18:20 | 25.15377 | -66.82153 | 39052 ft | 493 kts | 349° |
| 2026-05-04 18:20 | 25.22116 | -66.83597 | 39050 ft | 493 kts | 349° |
| 2026-05-04 18:21 | 25.28853 | -66.85043 | 39060 ft | 493 kts | 349° |
| 2026-05-04 18:21 | 25.35581 | -66.86488 | 39047 ft | 493 kts | 349° |
| 2026-05-04 18:22 | 25.42330 | -66.87939 | 39056 ft | 493 kts | 349° |
| 2026-05-04 18:22 | 25.49068 | -66.89389 | 39056 ft | 493 kts | 349° |
| 2026-05-04 18:23 | 25.55762 | -66.90832 | 39047 ft | 493 kts | 349° |
| 2026-05-04 18:23 | 25.62487 | -66.92283 | 39060 ft | 493 kts | 349° |
| 2026-05-04 18:24 | 25.69230 | -66.93740 | 39051 ft | 493 kts | 349° |
| 2026-05-04 18:24 | 25.75959 | -66.95195 | 39051 ft | 493 kts | 349° |
| 2026-05-04 18:25 | 25.82698 | -66.96654 | 39060 ft | 493 kts | 349° |
| 2026-05-04 18:25 | 25.89447 | -66.98117 | 39047 ft | 493 kts | 349° |
| 2026-05-04 18:26 | 25.96172 | -66.99576 | 39056 ft | 493 kts | 349° |
| 2026-05-04 18:26 | 26.02880 | -67.01033 | 39056 ft | 493 kts | 349° |
| 2026-05-04 18:27 | 26.09619 | -67.02499 | 39047 ft | 493 kts | 349° |
| 2026-05-04 18:27 | 26.16360 | -67.03967 | 39060 ft | 493 kts | 349° |
| 2026-05-04 18:28 | 26.23097 | -67.05436 | 39050 ft | 493 kts | 349° |
| 2026-05-04 18:28 | 26.29791 | -67.06897 | 39052 ft | 493 kts | 349° |
| 2026-05-04 18:29 | 26.36542 | -67.08373 | 39060 ft | 493 kts | 349° |
| 2026-05-04 18:29 | 26.43273 | -67.09845 | 39047 ft | 493 kts | 349° |
| 2026-05-04 18:30 | 26.53377 | -67.12060 | 39060 ft | 493 kts | 349° |
| 2026-05-04 18:31 | 26.60073 | -67.13529 | 39048 ft | 493 kts | 349° |
| 2026-05-04 18:31 | 26.66812 | -67.15010 | 39055 ft | 493 kts | 349° |
| 2026-05-04 18:32 | 26.73537 | -67.16489 | 39057 ft | 493 kts | 349° |
| 2026-05-04 18:32 | 26.80282 | -67.17975 | 39047 ft | 493 kts | 349° |
| 2026-05-04 18:33 | 26.87010 | -67.19458 | 39059 ft | 493 kts | 349° |
| 2026-05-04 18:33 | 26.93744 | -67.20945 | 39052 ft | 493 kts | 349° |
| 2026-05-04 18:34 | 27.00446 | -67.22427 | 39050 ft | 493 kts | 349° |
| 2026-05-04 18:34 | 27.07177 | -67.23913 | 39060 ft | 493 kts | 349° |
| 2026-05-04 18:35 | 27.13919 | -67.25407 | 39048 ft | 493 kts | 349° |
| 2026-05-04 18:35 | 27.20647 | -67.26902 | 39056 ft | 493 kts | 349° |
| 2026-05-04 18:36 | 27.27340 | -67.28390 | 39057 ft | 493 kts | 349° |
| 2026-05-04 18:36 | 27.34072 | -67.29888 | 39047 ft | 493 kts | 349° |
| 2026-05-04 18:37 | 27.40812 | -67.31389 | 39060 ft | 493 kts | 349° |
| 2026-05-04 18:37 | 27.47543 | -67.32890 | 39051 ft | 493 kts | 349° |
| 2026-05-04 18:38 | 27.54291 | -67.34397 | 39051 ft | 493 kts | 349° |
| 2026-05-04 18:38 | 27.60983 | -67.35892 | 39060 ft | 493 kts | 349° |
| 2026-05-04 18:39 | 27.67724 | -67.37401 | 39047 ft | 493 kts | 349° |
| 2026-05-04 18:39 | 27.74464 | -67.38912 | 39056 ft | 493 kts | 349° |
| 2026-05-04 18:40 | 27.81208 | -67.40425 | 39056 ft | 493 kts | 349° |
| 2026-05-04 18:40 | 27.87888 | -67.41926 | 39047 ft | 493 kts | 349° |
| 2026-05-04 18:41 | 27.94619 | -67.43440 | 39060 ft | 493 kts | 349° |
| 2026-05-04 18:41 | 28.01352 | -67.44957 | 39050 ft | 493 kts | 349° |
| 2026-05-04 18:42 | 28.08082 | -67.46475 | 39052 ft | 493 kts | 349° |
| 2026-05-04 18:42 | 28.14815 | -67.47995 | 39060 ft | 493 kts | 349° |
| 2026-05-04 18:43 | 28.21546 | -67.49517 | 39047 ft | 493 kts | 349° |
| 2026-05-04 18:43 | 28.28232 | -67.51031 | 39057 ft | 493 kts | 349° |
| 2026-05-04 18:44 | 28.34973 | -67.52556 | 39055 ft | 493 kts | 349° |
| 2026-05-04 18:44 | 28.41710 | -67.54085 | 39047 ft | 493 kts | 349° |
| 2026-05-04 18:45 | 28.48442 | -67.55617 | 39060 ft | 493 kts | 349° |
| 2026-05-04 18:45 | 28.55172 | -67.57150 | 39050 ft | 493 kts | 349° |
| 2026-05-04 18:46 | 28.61858 | -67.58674 | 39052 ft | 493 kts | 349° |
| 2026-05-04 18:46 | 28.68594 | -67.60211 | 39060 ft | 493 kts | 349° |
| 2026-05-04 18:47 | 28.75292 | -67.61742 | 39047 ft | 493 kts | 349° |
| 2026-05-04 18:47 | 28.82021 | -67.63281 | 39057 ft | 493 kts | 349° |
| 2026-05-04 18:48 | 28.88755 | -67.64824 | 39055 ft | 493 kts | 349° |
| 2026-05-04 18:48 | 28.95478 | -67.66366 | 39048 ft | 493 kts | 349° |
| 2026-05-04 18:49 | 29.02207 | -67.67912 | 39060 ft | 493 kts | 349° |
| 2026-05-04 18:49 | 29.08928 | -67.69458 | 39050 ft | 493 kts | 349° |
| 2026-05-04 18:50 | 29.15658 | -67.71008 | 39053 ft | 493 kts | 349° |
| 2026-05-04 18:50 | 29.22341 | -67.72549 | 39059 ft | 493 kts | 349° |
| 2026-05-04 18:51 | 29.29119 | -67.74114 | 39047 ft | 493 kts | 349° |
| 2026-05-04 18:51 | 29.35802 | -67.75660 | 39058 ft | 493 kts | 349° |
| 2026-05-04 18:52 | 29.42533 | -67.77218 | 39054 ft | 493 kts | 349° |
| 2026-05-04 18:52 | 29.49264 | -67.78779 | 39048 ft | 493 kts | 349° |
| 2026-05-04 18:53 | 29.55954 | -67.80332 | 39060 ft | 493 kts | 349° |
| 2026-05-04 18:53 | 29.62687 | -67.81898 | 39049 ft | 493 kts | 349° |
| 2026-05-04 18:54 | 29.69419 | -67.83465 | 39053 ft | 493 kts | 349° |
| 2026-05-04 18:54 | 29.76142 | -67.85033 | 39059 ft | 493 kts | 349° |
| 2026-05-04 18:55 | 29.82865 | -67.86602 | 39047 ft | 493 kts | 349° |
| 2026-05-04 18:55 | 29.92911 | -67.88951 | 39060 ft | 493 kts | 349° |
| 2026-05-04 18:56 | 29.99634 | -67.90526 | 39047 ft | 493 kts | 349° |
| 2026-05-04 18:56 | 30.06368 | -67.92106 | 39056 ft | 493 kts | 349° |
| 2026-05-04 18:57 | 30.13067 | -67.93679 | 39056 ft | 493 kts | 349° |
| 2026-05-04 18:57 | 30.19797 | -67.95263 | 39047 ft | 493 kts | 349° |
| 2026-05-04 18:58 | 30.26517 | -67.96846 | 39060 ft | 493 kts | 349° |
| 2026-05-04 18:58 | 30.33243 | -67.98432 | 39050 ft | 493 kts | 349° |
| 2026-05-04 18:59 | 30.39962 | -68.00019 | 39052 ft | 493 kts | 349° |
| 2026-05-04 18:59 | 30.46693 | -68.01612 | 39060 ft | 493 kts | 349° |
| 2026-05-04 19:00 | 30.53411 | -68.03203 | 39047 ft | 493 kts | 349° |
| 2026-05-04 19:00 | 30.60100 | -68.04790 | 39057 ft | 493 kts | 349° |
| 2026-05-04 19:01 | 30.66832 | -68.06389 | 39055 ft | 493 kts | 349° |
| 2026-05-04 19:01 | 30.73553 | -68.07988 | 39048 ft | 493 kts | 349° |
| 2026-05-04 19:02 | 30.80237 | -68.09580 | 39060 ft | 493 kts | 349° |
| 2026-05-04 19:02 | 30.86951 | -68.11182 | 39050 ft | 493 kts | 349° |
| 2026-05-04 19:03 | 30.93671 | -68.12787 | 39053 ft | 493 kts | 349° |
| 2026-05-04 19:03 | 30.99267 | -68.14126 | 39060 ft | 493 kts | 349° |
| 2026-05-04 19:04 | 31.05989 | -68.15736 | 39048 ft | 493 kts | 349° |
| 2026-05-04 19:04 | 31.12719 | -68.17351 | 39056 ft | 493 kts | 348° |
| 2026-05-04 19:05 | 31.19452 | -68.18968 | 39057 ft | 493 kts | 348° |
| 2026-05-04 19:05 | 31.26165 | -68.20583 | 39047 ft | 493 kts | 348° |
| 2026-05-04 19:06 | 31.32850 | -68.22194 | 39060 ft | 493 kts | 348° |
| 2026-05-04 19:06 | 31.39572 | -68.23812 | 39051 ft | 493 kts | 348° |
| 2026-05-04 19:07 | 31.46301 | -68.25439 | 39051 ft | 493 kts | 348° |
| 2026-05-04 19:07 | 31.53023 | -68.27068 | 39060 ft | 493 kts | 348° |
| 2026-05-04 19:08 | 31.59744 | -68.28698 | 39047 ft | 493 kts | 348° |
| 2026-05-04 19:08 | 31.66427 | -68.30320 | 39056 ft | 493 kts | 348° |
| 2026-05-04 19:09 | 31.73161 | -68.31957 | 39056 ft | 493 kts | 348° |
| 2026-05-04 19:09 | 31.79887 | -68.33595 | 39047 ft | 493 kts | 348° |
| 2026-05-04 19:10 | 31.86604 | -68.35233 | 39060 ft | 493 kts | 348° |
| 2026-05-04 19:10 | 31.93282 | -68.36863 | 39051 ft | 493 kts | 348° |
| 2026-05-04 19:11 | 32.00001 | -68.38506 | 39051 ft | 493 kts | 348° |
| 2026-05-04 19:11 | 32.06725 | -68.40153 | 39060 ft | 493 kts | 348° |
| 2026-05-04 19:12 | 32.16817 | -68.42630 | 39049 ft | 493 kts | 348° |
| 2026-05-04 19:13 | 32.23535 | -68.44281 | 39061 ft | 493 kts | 348° |
| 2026-05-04 19:13 | 32.30211 | -68.45925 | 39048 ft | 493 kts | 348° |
| 2026-05-04 19:14 | 32.36920 | -68.47579 | 39054 ft | 493 kts | 348° |
| 2026-05-04 19:14 | 32.43649 | -68.49241 | 39058 ft | 493 kts | 348° |
| 2026-05-04 19:15 | 32.50379 | -68.50906 | 39047 ft | 493 kts | 348° |
| 2026-05-04 19:15 | 32.57083 | -68.52566 | 39059 ft | 493 kts | 348° |
| 2026-05-04 19:16 | 32.63806 | -68.54234 | 39052 ft | 493 kts | 348° |
| 2026-05-04 19:16 | 32.70515 | -68.55901 | 39050 ft | 493 kts | 348° |
| 2026-05-04 19:17 | 32.77234 | -68.57573 | 39060 ft | 493 kts | 348° |
| 2026-05-04 19:17 | 32.83906 | -68.59236 | 39048 ft | 493 kts | 348° |
| 2026-05-04 19:18 | 32.90624 | -68.60913 | 39055 ft | 493 kts | 348° |
| 2026-05-04 19:18 | 32.97354 | -68.62596 | 39057 ft | 493 kts | 348° |
| 2026-05-04 19:19 | 33.04064 | -68.64276 | 39047 ft | 493 kts | 348° |
| 2026-05-04 19:19 | 33.10749 | -68.65952 | 39059 ft | 493 kts | 348° |
| 2026-05-04 19:20 | 33.17468 | -68.67640 | 39052 ft | 493 kts | 348° |
| 2026-05-04 19:20 | 33.24175 | -68.69327 | 39050 ft | 493 kts | 348° |
| 2026-05-04 19:21 | 33.30903 | -68.71023 | 39060 ft | 493 kts | 348° |
| 2026-05-04 19:21 | 33.37620 | -68.72718 | 39047 ft | 493 kts | 348° |
| 2026-05-04 19:22 | 33.44295 | -68.74405 | 39056 ft | 493 kts | 348° |
| 2026-05-04 19:22 | 33.51014 | -68.76106 | 39056 ft | 493 kts | 348° |
| 2026-05-04 19:23 | 33.57732 | -68.77810 | 39047 ft | 493 kts | 348° |
| 2026-05-04 19:23 | 33.64437 | -68.79512 | 39060 ft | 493 kts | 348° |
| 2026-05-04 19:24 | 33.71143 | -68.81218 | 39051 ft | 493 kts | 348° |
| 2026-05-04 19:24 | 33.77860 | -68.82930 | 39051 ft | 493 kts | 348° |
| 2026-05-04 19:25 | 33.84535 | -68.84633 | 39060 ft | 493 kts | 348° |
| 2026-05-04 19:25 | 33.91254 | -68.86350 | 39047 ft | 493 kts | 348° |
| 2026-05-04 19:26 | 33.97950 | -68.88064 | 39056 ft | 493 kts | 348° |
| 2026-05-04 19:26 | 34.04690 | -68.89793 | 39056 ft | 493 kts | 348° |
| 2026-05-04 19:27 | 34.11373 | -68.91505 | 39047 ft | 493 kts | 348° |
| 2026-05-04 19:27 | 34.18077 | -68.93231 | 39060 ft | 493 kts | 348° |
| 2026-05-04 19:28 | 34.24792 | -68.94964 | 39050 ft | 493 kts | 348° |
| 2026-05-04 19:28 | 34.31508 | -68.96698 | 39052 ft | 493 kts | 348° |
| 2026-05-04 19:29 | 34.38224 | -68.98435 | 39059 ft | 493 kts | 348° |
| 2026-05-04 19:29 | 34.44942 | -69.00175 | 39047 ft | 493 kts | 348° |
| 2026-05-04 19:30 | 34.51645 | -69.01913 | 39057 ft | 493 kts | 348° |
| 2026-05-04 19:30 | 34.58319 | -69.03647 | 39054 ft | 493 kts | 348° |
| 2026-05-04 19:31 | 34.65042 | -69.05397 | 39048 ft | 493 kts | 348° |
| 2026-05-04 19:31 | 34.71745 | -69.07144 | 39060 ft | 493 kts | 348° |
| 2026-05-04 19:32 | 34.78458 | -69.08898 | 39049 ft | 493 kts | 348° |
| 2026-05-04 19:32 | 34.85172 | -69.10654 | 39053 ft | 493 kts | 348° |
| 2026-05-04 19:33 | 34.91841 | -69.12401 | 39059 ft | 493 kts | 348° |
| 2026-05-04 19:33 | 34.98545 | -69.14160 | 39047 ft | 493 kts | 348° |
| 2026-05-04 19:34 | 35.05259 | -69.15925 | 39058 ft | 493 kts | 348° |
| 2026-05-04 19:34 | 35.11977 | -69.17694 | 39053 ft | 493 kts | 348° |
| 2026-05-04 19:35 | 35.18689 | -69.19464 | 39049 ft | 493 kts | 348° |
| 2026-05-04 19:35 | 35.25390 | -69.21235 | 39061 ft | 493 kts | 348° |
| 2026-05-04 19:36 | 35.32068 | -69.23002 | 39049 ft | 493 kts | 348° |
| 2026-05-04 19:36 | 35.38770 | -69.24779 | 39054 ft | 493 kts | 348° |
| 2026-05-04 19:37 | 35.45483 | -69.26561 | 39058 ft | 493 kts | 348° |
| 2026-05-04 19:37 | 35.52197 | -69.28347 | 39047 ft | 493 kts | 348° |
| 2026-05-04 19:38 | 35.58862 | -69.30123 | 39059 ft | 493 kts | 348° |
| 2026-05-04 19:38 | 35.65564 | -69.31912 | 39053 ft | 493 kts | 348° |
| 2026-05-04 19:39 | 35.72269 | -69.33705 | 39049 ft | 493 kts | 348° |
| 2026-05-04 19:39 | 35.78979 | -69.35502 | 39060 ft | 493 kts | 348° |
| 2026-05-04 19:40 | 35.85689 | -69.37302 | 39048 ft | 493 kts | 348° |
| 2026-05-04 19:40 | 35.92389 | -69.39103 | 39055 ft | 493 kts | 348° |
| 2026-05-04 19:41 | 35.99092 | -69.40908 | 39057 ft | 493 kts | 348° |
| 2026-05-04 19:41 | 36.05756 | -69.42705 | 39047 ft | 493 kts | 348° |
| 2026-05-04 19:42 | 36.12463 | -69.44516 | 39059 ft | 493 kts | 348° |
| 2026-05-04 19:42 | 36.19185 | -69.46331 | 39052 ft | 493 kts | 348° |
| 2026-05-04 19:43 | 36.25857 | -69.48143 | 39050 ft | 493 kts | 348° |
| 2026-05-04 19:43 | 36.32558 | -69.49965 | 39060 ft | 493 kts | 348° |
| 2026-05-04 19:44 | 36.39259 | -69.51789 | 39047 ft | 493 kts | 348° |
| 2026-05-04 19:44 | 36.45946 | -69.53612 | 39056 ft | 493 kts | 348° |
| 2026-05-04 19:45 | 36.52668 | -69.55447 | 39056 ft | 493 kts | 348° |
| 2026-05-04 19:45 | 36.59365 | -69.57279 | 39047 ft | 493 kts | 348° |
| 2026-05-04 19:46 | 36.66072 | -69.59117 | 39060 ft | 493 kts | 348° |
| 2026-05-04 19:46 | 36.72736 | -69.60947 | 39051 ft | 493 kts | 348° |
| 2026-05-04 19:47 | 36.79431 | -69.62788 | 39051 ft | 493 kts | 348° |
| 2026-05-04 19:47 | 36.86127 | -69.64633 | 39060 ft | 493 kts | 348° |
| 2026-05-04 19:48 | 36.92835 | -69.66484 | 39047 ft | 493 kts | 348° |
| 2026-05-04 19:48 | 36.99540 | -69.68338 | 39057 ft | 493 kts | 348° |
| 2026-05-04 19:49 | 37.06241 | -69.70194 | 39055 ft | 493 kts | 348° |
| 2026-05-04 19:49 | 37.12900 | -69.72042 | 39047 ft | 493 kts | 348° |
| 2026-05-04 19:50 | 37.19596 | -69.73904 | 39060 ft | 493 kts | 348° |
| 2026-05-04 19:50 | 37.26303 | -69.75772 | 39050 ft | 493 kts | 348° |
| 2026-05-04 19:51 | 37.31872 | -69.77325 | 39050 ft | 493 kts | 348° |
| 2026-05-04 19:51 | 37.38569 | -69.79197 | 39060 ft | 493 kts | 348° |
| 2026-05-04 19:52 | 37.45273 | -69.81073 | 39048 ft | 493 kts | 348° |
| 2026-05-04 19:52 | 37.51971 | -69.82952 | 39055 ft | 493 kts | 348° |
| 2026-05-04 19:53 | 37.58673 | -69.84835 | 39057 ft | 493 kts | 348° |
| 2026-05-04 19:53 | 37.65335 | -69.86711 | 39047 ft | 493 kts | 348° |
| 2026-05-04 19:54 | 37.72038 | -69.88601 | 39060 ft | 493 kts | 348° |
| 2026-05-04 19:54 | 37.78735 | -69.90493 | 39051 ft | 493 kts | 348° |
| 2026-05-04 19:55 | 37.85437 | -69.92391 | 39051 ft | 493 kts | 348° |
| 2026-05-04 19:55 | 37.92095 | -69.94279 | 39060 ft | 493 kts | 348° |
| 2026-05-04 19:56 | 37.98788 | -69.96180 | 39047 ft | 493 kts | 348° |
| 2026-05-04 19:56 | 38.05487 | -69.98087 | 39056 ft | 493 kts | 348° |
| 2026-05-04 19:57 | 38.12178 | -69.99996 | 39056 ft | 493 kts | 348° |
| 2026-05-04 19:57 | 38.18881 | -70.01911 | 39047 ft | 493 kts | 347° |
| 2026-05-04 19:58 | 38.25571 | -70.03826 | 39060 ft | 493 kts | 347° |
| 2026-05-04 19:58 | 38.28827 | -70.05157 | 39029 ft | 493 kts | 336° |
| 2026-05-04 19:58 | 38.31841 | -70.07242 | 39068 ft | 493 kts | 328° |
| 2026-05-04 19:59 | 38.37504 | -70.12175 | 39059 ft | 493 kts | 323° |
| 2026-05-04 19:59 | 38.42860 | -70.17555 | 39045 ft | 493 kts | 320° |
| 2026-05-04 20:00 | 38.48064 | -70.23245 | 39069 ft | 492 kts | 318° |
| 2026-05-04 20:00 | 38.50635 | -70.26122 | 39227 ft | 490 kts | 318° |
| 2026-05-04 20:00 | 38.53202 | -70.29009 | 39390 ft | 493 kts | 318° |
| 2026-05-04 20:00 | 38.55779 | -70.31912 | 39596 ft | 495 kts | 318° |
| 2026-05-04 20:01 | 38.58365 | -70.34826 | 39866 ft | 494 kts | 318° |
| 2026-05-04 20:01 | 38.60940 | -70.37730 | 40013 ft | 493 kts | 318° |
| 2026-05-04 20:01 | 38.63511 | -70.40631 | 40035 ft | 492 kts | 318° |
| 2026-05-04 20:02 | 38.68640 | -70.46425 | 40048 ft | 492 kts | 318° |
| 2026-05-04 20:02 | 38.73773 | -70.52235 | 40058 ft | 492 kts | 318° |
| 2026-05-04 20:03 | 38.78878 | -70.58024 | 40051 ft | 492 kts | 318° |
| 2026-05-04 20:03 | 38.84002 | -70.63846 | 40051 ft | 492 kts | 318° |
| 2026-05-04 20:04 | 38.89117 | -70.69671 | 40060 ft | 492 kts | 318° |
| 2026-05-04 20:04 | 38.94242 | -70.75517 | 40047 ft | 492 kts | 318° |
| 2026-05-04 20:05 | 38.99323 | -70.81326 | 40056 ft | 492 kts | 318° |
| 2026-05-04 20:05 | 39.04433 | -70.87179 | 40056 ft | 492 kts | 318° |
| 2026-05-04 20:06 | 39.09550 | -70.93053 | 40047 ft | 492 kts | 317° |
| 2026-05-04 20:06 | 39.14651 | -70.98920 | 40060 ft | 492 kts | 317° |
| 2026-05-04 20:07 | 39.19759 | -71.04806 | 40050 ft | 492 kts | 317° |
| 2026-05-04 20:07 | 39.24828 | -71.10660 | 40052 ft | 492 kts | 317° |
| 2026-05-04 20:08 | 39.29922 | -71.16555 | 40060 ft | 492 kts | 317° |
| 2026-05-04 20:08 | 39.35023 | -71.22469 | 40047 ft | 492 kts | 317° |
| 2026-05-04 20:09 | 39.40037 | -71.28474 | 40033 ft | 492 kts | 311° |
| 2026-05-04 20:09 | 39.44199 | -71.35496 | 40063 ft | 492 kts | 305° |
| 2026-05-04 20:10 | 39.47998 | -71.42860 | 40045 ft | 492 kts | 302° |
| 2026-05-04 20:10 | 39.51618 | -71.50375 | 40055 ft | 492 kts | 301° |
| 2026-05-04 20:11 | 39.55182 | -71.57933 | 40056 ft | 492 kts | 301° |
| 2026-05-04 20:11 | 39.58742 | -71.65516 | 40047 ft | 492 kts | 301° |
| 2026-05-04 20:12 | 39.62289 | -71.73084 | 40060 ft | 492 kts | 301° |
| 2026-05-04 20:12 | 39.65832 | -71.80659 | 40051 ft | 492 kts | 301° |
| 2026-05-04 20:13 | 39.69374 | -71.88247 | 40051 ft | 492 kts | 301° |
| 2026-05-04 20:13 | 39.72910 | -71.95864 | 40061 ft | 492 kts | 300° |
| 2026-05-04 20:14 | 39.76367 | -72.03502 | 40047 ft | 492 kts | 300° |
| 2026-05-04 20:14 | 39.79799 | -72.11180 | 40056 ft | 492 kts | 300° |
| 2026-05-04 20:15 | 39.83224 | -72.18898 | 40056 ft | 492 kts | 300° |
| 2026-05-04 20:15 | 39.86636 | -72.26613 | 40047 ft | 492 kts | 299° |
| 2026-05-04 20:16 | 39.90050 | -72.34351 | 40060 ft | 492 kts | 299° |
| 2026-05-04 20:16 | 39.93436 | -72.42044 | 40051 ft | 492 kts | 299° |
| 2026-05-04 20:17 | 39.96857 | -72.49760 | 40052 ft | 492 kts | 300° |
| 2026-05-04 20:17 | 40.00329 | -72.57462 | 40060 ft | 492 kts | 300° |
| 2026-05-04 20:18 | 40.03814 | -72.65156 | 40047 ft | 492 kts | 300° |
| 2026-05-04 20:18 | 40.07297 | -72.72851 | 40057 ft | 492 kts | 300° |
| 2026-05-04 20:19 | 40.10849 | -72.80421 | 40056 ft | 492 kts | 303° |
| 2026-05-04 20:19 | 40.14581 | -72.87934 | 40047 ft | 492 kts | 303° |
| 2026-05-04 20:20 | 40.18338 | -72.95417 | 40060 ft | 492 kts | 303° |
| 2026-05-04 20:20 | 40.22089 | -73.02898 | 40050 ft | 492 kts | 303° |
| 2026-05-04 20:21 | 40.25837 | -73.10390 | 40052 ft | 492 kts | 303° |
| 2026-05-04 20:21 | 40.31464 | -73.21655 | 40053 ft | 492 kts | 304° |
| 2026-05-04 20:22 | 40.35450 | -73.28898 | 40047 ft | 492 kts | 307° |
| 2026-05-04 20:22 | 40.39589 | -73.36082 | 40060 ft | 492 kts | 307° |
| 2026-05-04 20:23 | 40.43719 | -73.43185 | 40051 ft | 492 kts | 307° |
| 2026-05-04 20:23 | 40.47870 | -73.50338 | 40051 ft | 492 kts | 307° |
| 2026-05-04 20:24 | 40.52018 | -73.57506 | 40060 ft | 492 kts | 307° |
| 2026-05-04 20:24 | 40.56154 | -73.64673 | 40047 ft | 492 kts | 307° |
| 2026-05-04 20:25 | 40.60320 | -73.71827 | 40044 ft | 492 kts | 311° |
| 2026-05-04 20:25 | 40.62773 | -73.74869 | 40035 ft | 492 kts | 322° |
| 2026-05-04 20:25 | 40.65680 | -73.77228 | 40049 ft | 492 kts | 334° |
| 2026-05-04 20:26 | 40.68903 | -73.78769 | 40058 ft | 492 kts | 346° |
| 2026-05-04 20:26 | 40.72290 | -73.79415 | 40061 ft | 492 kts | 358° |
| 2026-05-04 20:26 | 40.79121 | -73.78800 | 40073 ft | 492 kts | 5° |
| 2026-05-04 20:27 | 40.85972 | -73.78406 | 40042 ft | 492 kts | 4° |
| 2026-05-04 20:27 | 40.92743 | -73.77176 | 40059 ft | 492 kts | 9° |
| 2026-05-04 20:28 | 40.99512 | -73.75672 | 40049 ft | 492 kts | 9° |
| 2026-05-04 20:28 | 41.06273 | -73.74251 | 40054 ft | 492 kts | 9° |
| 2026-05-04 20:29 | 41.12994 | -73.72890 | 40058 ft | 492 kts | 9° |
| 2026-05-04 20:29 | 41.19774 | -73.71528 | 40046 ft | 492 kts | 9° |
| 2026-05-04 20:30 | 41.26540 | -73.70168 | 40058 ft | 492 kts | 9° |
| 2026-05-04 20:30 | 41.33318 | -73.68802 | 40053 ft | 492 kts | 9° |
| 2026-05-04 20:31 | 41.40067 | -73.67438 | 40049 ft | 492 kts | 9° |
| 2026-05-04 20:31 | 41.46868 | -73.66061 | 40061 ft | 492 kts | 9° |
| 2026-05-04 20:32 | 41.53605 | -73.64694 | 40051 ft | 492 kts | 9° |
| 2026-05-04 20:32 | 41.60388 | -73.63315 | 40051 ft | 492 kts | 9° |
| 2026-05-04 20:33 | 41.67163 | -73.61935 | 40060 ft | 492 kts | 9° |
| 2026-05-04 20:33 | 41.73929 | -73.60553 | 40047 ft | 492 kts | 9° |
| 2026-05-04 20:34 | 41.80702 | -73.59167 | 40056 ft | 492 kts | 9° |
| 2026-05-04 20:34 | 41.87432 | -73.57787 | 40056 ft | 492 kts | 9° |
| 2026-05-04 20:35 | 41.94211 | -73.56393 | 40047 ft | 492 kts | 9° |
| 2026-05-04 20:35 | 42.00988 | -73.54998 | 40060 ft | 492 kts | 9° |
| 2026-05-04 20:36 | 42.07761 | -73.53600 | 40050 ft | 492 kts | 9° |
| 2026-05-04 20:36 | 42.14529 | -73.52200 | 40052 ft | 492 kts | 9° |
| 2026-05-04 20:37 | 42.20160 | -73.51033 | 40061 ft | 492 kts | 9° |
| 2026-05-04 20:37 | 42.26934 | -73.49626 | 40048 ft | 492 kts | 9° |
| 2026-05-04 20:38 | 42.34797 | -73.47989 | 40057 ft | 492 kts | 9° |
| 2026-05-04 20:38 | 42.40431 | -73.46814 | 40058 ft | 492 kts | 9° |
| 2026-05-04 20:39 | 42.47200 | -73.45399 | 40047 ft | 492 kts | 9° |
| 2026-05-04 20:39 | 42.53986 | -73.43977 | 40059 ft | 492 kts | 9° |
| 2026-05-04 20:40 | 42.60761 | -73.42555 | 40052 ft | 492 kts | 9° |
| 2026-05-04 20:40 | 42.67496 | -73.41138 | 40049 ft | 492 kts | 9° |
| 2026-05-04 20:41 | 42.74253 | -73.39713 | 40060 ft | 492 kts | 9° |
| 2026-05-04 20:41 | 42.81025 | -73.38282 | 40048 ft | 492 kts | 9° |
| 2026-05-04 20:42 | 42.87784 | -73.36850 | 40055 ft | 492 kts | 9° |
| 2026-05-04 20:42 | 42.94587 | -73.35603 | 40056 ft | 492 kts | 4° |
| 2026-05-04 20:43 | 43.01433 | -73.35269 | 40047 ft | 492 kts | 0° |
| 2026-05-04 20:43 | 43.08285 | -73.35368 | 40056 ft | 492 kts | 358° |
| 2026-05-04 20:44 | 43.15079 | -73.35833 | 40056 ft | 492 kts | 356° |
| 2026-05-04 20:44 | 43.21962 | -73.36437 | 39620 ft | 494 kts | 356° |
| 2026-05-04 20:45 | 43.25348 | -73.36744 | 39052 ft | 493 kts | 356° |
| 2026-05-04 20:45 | 43.28815 | -73.37060 | 38441 ft | 492 kts | 356° |
| 2026-05-04 20:45 | 43.32180 | -73.37365 | 37843 ft | 490 kts | 356° |
| 2026-05-04 20:45 | 43.35578 | -73.37673 | 37237 ft | 488 kts | 356° |
| 2026-05-04 20:46 | 43.38957 | -73.37979 | 36634 ft | 485 kts | 356° |
| 2026-05-04 20:46 | 43.42321 | -73.38284 | 36033 ft | 483 kts | 356° |
| 2026-05-04 20:46 | 43.45681 | -73.38588 | 35433 ft | 482 kts | 356° |
| 2026-05-04 20:46 | 43.49025 | -73.38891 | 34836 ft | 482 kts | 356° |
| 2026-05-04 20:47 | 43.52393 | -73.39197 | 34238 ft | 489 kts | 356° |
| 2026-05-04 20:47 | 43.55827 | -73.39510 | 33628 ft | 497 kts | 356° |
| 2026-05-04 20:47 | 43.59286 | -73.39826 | 33008 ft | 500 kts | 356° |
| 2026-05-04 20:47 | 43.62747 | -73.40142 | 32384 ft | 497 kts | 356° |
| 2026-05-04 20:48 | 43.66192 | -73.40459 | 31762 ft | 493 kts | 355° |
| 2026-05-04 20:48 | 43.69596 | -73.40804 | 31149 ft | 488 kts | 355° |
| 2026-05-04 20:48 | 43.72972 | -73.41162 | 30542 ft | 483 kts | 355° |
| 2026-05-04 20:48 | 43.76263 | -73.41519 | 29952 ft | 477 kts | 355° |
| 2026-05-04 20:49 | 43.79587 | -73.41887 | 29357 ft | 471 kts | 355° |
| 2026-05-04 20:49 | 43.82795 | -73.42247 | 28784 ft | 466 kts | 355° |
| 2026-05-04 20:49 | 43.86007 | -73.42610 | 28210 ft | 460 kts | 355° |
| 2026-05-04 20:49 | 43.89199 | -73.42972 | 27640 ft | 456 kts | 355° |
| 2026-05-04 20:50 | 43.92350 | -73.43331 | 27078 ft | 452 kts | 355° |
| 2026-05-04 20:50 | 43.95478 | -73.43687 | 26519 ft | 449 kts | 355° |
| 2026-05-04 20:50 | 43.98590 | -73.44043 | 25964 ft | 446 kts | 355° |
| 2026-05-04 20:50 | 44.01668 | -73.44394 | 25413 ft | 443 kts | 355° |
| 2026-05-04 20:51 | 44.04730 | -73.44745 | 24865 ft | 441 kts | 355° |
| 2026-05-04 20:51 | 44.07784 | -73.45094 | 24318 ft | 438 kts | 355° |
| 2026-05-04 20:51 | 44.10819 | -73.45442 | 23774 ft | 435 kts | 355° |
| 2026-05-04 20:51 | 44.13834 | -73.45788 | 23235 ft | 432 kts | 355° |
| 2026-05-04 20:52 | 44.16776 | -73.46126 | 22708 ft | 429 kts | 355° |
| 2026-05-04 20:52 | 44.19737 | -73.46466 | 22178 ft | 425 kts | 355° |
| 2026-05-04 20:52 | 44.22681 | -73.46805 | 21650 ft | 422 kts | 355° |
| 2026-05-04 20:52 | 44.25589 | -73.47140 | 21129 ft | 418 kts | 355° |
| 2026-05-04 20:53 | 44.28478 | -73.47473 | 20612 ft | 414 kts | 355° |
| 2026-05-04 20:53 | 44.31342 | -73.47803 | 20100 ft | 411 kts | 355° |
| 2026-05-04 20:53 | 44.34173 | -73.48130 | 19594 ft | 407 kts | 355° |
| 2026-05-04 20:53 | 44.36989 | -73.48456 | 19090 ft | 404 kts | 355° |
| 2026-05-04 20:54 | 44.39772 | -73.48778 | 18592 ft | 400 kts | 355° |
| 2026-05-04 20:54 | 44.42538 | -73.49097 | 18096 ft | 396 kts | 355° |
| 2026-05-04 20:54 | 44.45273 | -73.49411 | 17607 ft | 393 kts | 355° |
| 2026-05-04 20:54 | 44.47990 | -73.49725 | 17120 ft | 389 kts | 355° |
| 2026-05-04 20:55 | 44.50648 | -73.50032 | 16645 ft | 386 kts | 355° |
| 2026-05-04 20:55 | 44.53316 | -73.50342 | 16169 ft | 384 kts | 355° |
| 2026-05-04 20:55 | 44.55972 | -73.50651 | 15694 ft | 382 kts | 355° |
| 2026-05-04 20:55 | 44.58621 | -73.50959 | 15219 ft | 380 kts | 355° |
| 2026-05-04 20:56 | 44.61253 | -73.51266 | 14747 ft | 377 kts | 355° |
| 2026-05-04 20:56 | 44.63864 | -73.51571 | 14279 ft | 374 kts | 355° |
| 2026-05-04 20:56 | 44.66448 | -73.51872 | 13817 ft | 371 kts | 355° |
| 2026-05-04 20:56 | 44.68989 | -73.52170 | 13333 ft | 370 kts | 355° |
| 2026-05-04 20:57 | 44.71546 | -73.52473 | 12851 ft | 367 kts | 355° |
| 2026-05-04 20:57 | 44.74064 | -73.52771 | 12548 ft | 360 kts | 355° |
| 2026-05-04 20:57 | 44.76568 | -73.53068 | 12244 ft | 360 kts | 355° |
| 2026-05-04 20:57 | 44.79063 | -73.53365 | 11931 ft | 361 kts | 355° |
| 2026-05-04 20:58 | 44.81570 | -73.53663 | 11606 ft | 362 kts | 355° |
| 2026-05-04 20:58 | 44.84076 | -73.53962 | 11279 ft | 361 kts | 355° |
| 2026-05-04 20:58 | 44.86584 | -73.54250 | 10868 ft | 359 kts | 355° |
| 2026-05-04 20:58 | 44.89051 | -73.54524 | 10594 ft | 353 kts | 355° |
| 2026-05-04 20:59 | 44.91495 | -73.54793 | 10390 ft | 350 kts | 355° |
| 2026-05-04 20:59 | 44.93891 | -73.55056 | 10211 ft | 350 kts | 355° |
| 2026-05-04 20:59 | 44.96313 | -73.55322 | 10097 ft | 346 kts | 355° |
| 2026-05-04 20:59 | 44.98662 | -73.55580 | 10017 ft | 331 kts | 355° |
| 2026-05-04 21:00 | 45.00902 | -73.55825 | 9935 ft | 317 kts | 355° |
| 2026-05-04 21:00 | 45.03071 | -73.56063 | 9844 ft | 304 kts | 355° |
| 2026-05-04 21:00 | 45.05149 | -73.56291 | 9703 ft | 295 kts | 355° |
| 2026-05-04 21:00 | 45.07165 | -73.56512 | 9573 ft | 286 kts | 355° |
| 2026-05-04 21:01 | 45.09118 | -73.56727 | 9469 ft | 277 kts | 355° |
| 2026-05-04 21:01 | 45.11018 | -73.56935 | 9354 ft | 269 kts | 355° |
| 2026-05-04 21:01 | 45.12848 | -73.57136 | 9199 ft | 264 kts | 355° |
| 2026-05-04 21:01 | 45.14663 | -73.57336 | 9017 ft | 260 kts | 355° |
| 2026-05-04 21:02 | 45.16457 | -73.57533 | 8817 ft | 257 kts | 355° |
| 2026-05-04 21:02 | 45.18237 | -73.57730 | 8604 ft | 256 kts | 355° |
| 2026-05-04 21:02 | 45.20011 | -73.57926 | 8381 ft | 255 kts | 355° |
| 2026-05-04 21:02 | 45.21783 | -73.58121 | 8153 ft | 255 kts | 355° |
| 2026-05-04 21:03 | 45.23551 | -73.58317 | 7922 ft | 254 kts | 355° |
| 2026-05-04 21:03 | 45.25319 | -73.58513 | 7684 ft | 254 kts | 355° |
| 2026-05-04 21:03 | 45.27080 | -73.58708 | 7441 ft | 255 kts | 355° |
| 2026-05-04 21:03 | 45.28848 | -73.58904 | 7200 ft | 255 kts | 355° |
| 2026-05-04 21:04 | 45.30617 | -73.59099 | 6966 ft | 254 kts | 355° |
| 2026-05-04 21:04 | 45.32380 | -73.59293 | 6735 ft | 254 kts | 355° |
| 2026-05-04 21:04 | 45.34139 | -73.59486 | 6501 ft | 254 kts | 355° |
| 2026-05-04 21:04 | 45.35898 | -73.59679 | 6262 ft | 254 kts | 355° |
| 2026-05-04 21:05 | 45.37663 | -73.59873 | 6020 ft | 254 kts | 355° |
| 2026-05-04 21:05 | 45.39402 | -73.59756 | 5717 ft | 256 kts | 15° |
| 2026-05-04 21:05 | 45.40954 | -73.58564 | 5552 ft | 252 kts | 34° |
| 2026-05-04 21:05 | 45.42390 | -73.57145 | 5372 ft | 250 kts | 35° |
| 2026-05-04 21:06 | 45.43828 | -73.55734 | 5228 ft | 247 kts | 34° |
| 2026-05-04 21:06 | 45.45226 | -73.54378 | 5059 ft | 245 kts | 34° |
| 2026-05-04 21:06 | 45.46653 | -73.52994 | 4865 ft | 245 kts | 34° |
| 2026-05-04 21:06 | 45.48068 | -73.51623 | 4659 ft | 245 kts | 34° |
| 2026-05-04 21:07 | 45.49458 | -73.50278 | 4449 ft | 246 kts | 34° |
| 2026-05-04 21:07 | 45.50876 | -73.48908 | 4232 ft | 246 kts | 34° |
| 2026-05-04 21:07 | 45.52296 | -73.47536 | 4010 ft | 247 kts | 34° |
| 2026-05-04 21:07 | 45.53722 | -73.46158 | 3784 ft | 248 kts | 34° |
| 2026-05-04 21:08 | 45.55158 | -73.44771 | 3552 ft | 249 kts | 34° |
| 2026-05-04 21:08 | 45.56583 | -73.43450 | 3380 ft | 245 kts | 28° |
| 2026-05-04 21:08 | 45.58206 | -73.42999 | 3294 ft | 234 kts | 355° |
| 2026-05-04 21:08 | 45.59640 | -73.43877 | 3302 ft | 221 kts | 321° |
| 2026-05-04 21:09 | 45.60509 | -73.45600 | 3373 ft | 207 kts | 300° |
| 2026-05-04 21:09 | 45.61164 | -73.47356 | 3395 ft | 198 kts | 297° |
| 2026-05-04 21:09 | 45.61758 | -73.49124 | 3378 ft | 196 kts | 295° |
| 2026-05-04 21:09 | 45.62304 | -73.50897 | 3354 ft | 195 kts | 292° |
| 2026-05-04 21:10 | 45.62506 | -73.52758 | 3272 ft | 188 kts | 263° |
| 2026-05-04 21:10 | 45.62182 | -73.54439 | 3337 ft | 171 kts | 253° |
| 2026-05-04 21:10 | 45.61593 | -73.55889 | 3270 ft | 163 kts | 231° |
| 2026-05-04 21:10 | 45.60821 | -73.57067 | 3324 ft | 162 kts | 226° |
| 2026-05-04 21:11 | 45.60025 | -73.58221 | 3257 ft | 163 kts | 225° |
| 2026-05-04 21:11 | 45.59223 | -73.59332 | 3074 ft | 162 kts | 223° |
| 2026-05-04 21:11 | 45.58402 | -73.60431 | 2867 ft | 161 kts | 223° |
| 2026-05-04 21:11 | 45.57572 | -73.61506 | 2618 ft | 161 kts | 221° |
| 2026-05-04 21:12 | 45.56736 | -73.62571 | 2384 ft | 160 kts | 221° |
| 2026-05-04 21:12 | 45.55911 | -73.63642 | 2169 ft | 160 kts | 221° |
| 2026-05-04 21:12 | 45.55099 | -73.64722 | 1957 ft | 159 kts | 222° |
| 2026-05-04 21:12 | 45.54295 | -73.65799 | 1747 ft | 158 kts | 222° |
| 2026-05-04 21:13 | 45.53486 | -73.66862 | 1537 ft | 158 kts | 221° |
| 2026-05-04 21:13 | 45.52684 | -73.67899 | 1331 ft | 157 kts | 220° |
| 2026-05-04 21:13 | 45.51876 | -73.68943 | 1123 ft | 157 kts | 220° |
| 2026-05-04 21:13 | 45.51071 | -73.69998 | 914 ft | 156 kts | 220° |
| 2026-05-04 21:14 | 45.50271 | -73.71053 | 706 ft | 156 kts | 220° |
| 2026-05-04 21:14 | 45.49476 | -73.72099 | 499 ft | 156 kts | 220° |
| 2026-05-04 21:14 | 45.48679 | -73.73144 | 295 ft | 155 kts | 220° |
| 2026-05-04 21:14 | 45.47893 | -73.74177 | 132 ft | 142 kts | 220° |
| 2026-05-04 21:15 | 45.47390 | -73.74832 | 131 ft | 54 kts | 223° |
| 2026-05-04 21:15 | 45.47182 | -73.75038 | 131 ft | 32 kts | 180° |
| 2026-05-04 21:15 | 45.46959 | -73.75036 | 131 ft | 32 kts | 178° |
| 2026-05-04 21:15 | 45.46740 | -73.75021 | 131 ft | 32 kts | 176° |
| 2026-05-04 21:16 | 45.46519 | -73.75012 | 131 ft | 32 kts | 178° |
| 2026-05-04 21:16 | 45.46299 | -73.74998 | 131 ft | 32 kts | 176° |
| 2026-05-04 21:16 | 45.46168 | -73.74969 | 131 ft | 15 kts | 134° |
| 2026-05-04 21:16 | 45.46153 | -73.74839 | 131 ft | 14 kts | 93° |
| 2026-05-04 21:17 | 45.46122 | -73.74695 | 131 ft | 16 kts | 108° |
| 2026-05-04 21:17 | 45.46061 | -73.74554 | 131 ft | 18 kts | 130° |
| 2026-05-04 21:17 | 45.45956 | -73.74489 | 131 ft | 18 kts | 176° |
| 2026-05-04 21:17 | 45.45890 | -73.74484 | 131 ft | 0 kts | 178° |